Time;durP1;ratioP1;P1;durP2;ratioP2;P2;SDS_P1;SDS_P2;PMS_P1;PMS_P2;Temp;Humidity;BMP_temperature;BMP_pressure;BME280_temperature;BME280_humidity;BME280_pressure;Samples;Min_cycle;Max_cycle;Signal;HPM_P1;HPM_P2
2022/01/13 00:02:29;;;;;;;95.15;43.97;;;-4.50;99.90;;;;;;5032189;28;20022;-73
2022/01/13 00:04:54;;;;;;;98.10;43.17;;;-4.40;99.90;;;;;;5014326;28;20022;-73
2022/01/13 00:07:20;;;;;;;96.60;41.85;;;-4.40;99.90;;;;;;5014758;28;20364;-73
2022/01/13 00:09:46;;;;;;;92.63;41.92;;;-4.40;99.90;;;;;;5032034;28;20036;-72
2022/01/13 00:12:13;;;;;;;104.20;42.25;;;-4.40;99.90;;;;;;5032163;28;20075;-73
2022/01/13 00:14:52;;;;;;;91.40;40.72;;;-4.30;99.90;;;;;;5014086;28;20025;-73
2022/01/13 00:19:57;;;;;;;93.57;40.85;;;-4.30;99.90;;;;;;5032121;28;20076;-73
2022/01/13 00:25:01;;;;;;;95.43;40.50;;;-4.30;99.90;;;;;;5032215;28;20037;-72
2022/01/13 00:27:29;;;;;;;93.57;43.45;;;-4.30;99.90;;;;;;5031803;28;20052;-73
2022/01/13 00:29:57;;;;;;;93.88;42.60;;;-4.30;99.90;;;;;;5031697;28;20025;-72
2022/01/13 00:32:27;;;;;;;98.00;40.65;;;-4.30;99.90;;;;;;5031800;28;20013;-73
2022/01/13 00:34:52;;;;;;;102.47;41.63;;;-4.20;99.90;;;;;;5031467;28;20030;-73
2022/01/13 00:37:18;;;;;;;94.82;42.28;;;-4.30;99.90;;;;;;5031623;28;20031;-73
2022/01/13 00:39:44;;;;;;;95.13;40.88;;;-4.30;99.90;;;;;;5031519;28;20107;-73
2022/01/13 00:42:09;;;;;;;93.97;44.35;;;-4.30;99.90;;;;;;5031326;28;20022;-72
2022/01/13 00:44:37;;;;;;;90.75;41.58;;;-4.30;99.90;;;;;;5031526;28;20460;-73
2022/01/13 00:47:07;;;;;;;109.00;45.55;;;-4.20;99.90;;;;;;5031568;28;20028;-73
2022/01/13 00:49:32;;;;;;;94.32;44.40;;;-4.20;99.90;;;;;;5031327;28;20037;-73
2022/01/13 00:51:58;;;;;;;99.13;47.03;;;-4.20;99.90;;;;;;5013703;28;20021;-74
2022/01/13 00:54:24;;;;;;;115.63;48.75;;;-4.20;99.90;;;;;;5031350;28;20048;-73
2022/01/13 00:56:51;;;;;;;111.20;47.25;;;-4.20;99.90;;;;;;5031110;28;20029;-73
2022/01/13 00:59:17;;;;;;;126.30;49.42;;;-4.20;99.90;;;;;;5031213;28;20103;-73
2022/01/13 01:01:49;;;;;;;118.07;51.22;;;-4.20;99.90;;;;;;5012846;28;20025;-73
2022/01/13 01:04:15;;;;;;;136.50;53.38;;;-4.20;99.90;;;;;;5030389;28;20075;-73
2022/01/13 01:06:41;;;;;;;115.00;50.03;;;-4.10;99.90;;;;;;5030302;28;20033;-73
2022/01/13 01:09:14;;;;;;;109.72;47.60;;;-4.20;99.90;;;;;;5030336;28;20080;-73
2022/01/13 01:11:40;;;;;;;141.80;56.90;;;-4.20;99.90;;;;;;5030335;28;20029;-73
2022/01/13 01:14:07;;;;;;;118.07;52.78;;;-4.10;99.90;;;;;;5031098;28;20272;-73
2022/01/13 01:16:36;;;;;;;123.18;54.15;;;-4.20;99.90;;;;;;5031017;28;20021;-73
2022/01/13 01:19:06;;;;;;;132.80;57.50;;;-4.10;99.90;;;;;;5029450;28;20040;-73
2022/01/13 01:26:51;;;;;;;139.55;58.05;;;-4.10;99.90;;;;;;5029469;28;20028;-73
2022/01/13 01:29:35;;;;;;;129.23;56.38;;;-4.10;99.90;;;;;;5029171;28;20025;-72
2022/01/13 01:32:05;;;;;;;136.40;56.08;;;-4.00;99.90;;;;;;5029226;28;20107;-73
2022/01/13 01:36:56;;;;;;;140.73;57.83;;;-3.90;99.90;;;;;;5031312;28;20038;-73
2022/01/13 01:39:23;;;;;;;145.52;58.67;;;-3.90;99.90;;;;;;5030839;28;20026;-73
2022/01/13 01:41:51;;;;;;;148.18;61.67;;;-3.90;99.90;;;;;;5030478;28;20550;-73
2022/01/13 01:44:28;;;;;;;166.25;62.83;;;-3.80;99.90;;;;;;5013235;28;20036;-72
2022/01/13 01:46:55;;;;;;;168.70;63.78;;;-3.80;99.90;;;;;;5030964;28;20025;-73
2022/01/13 01:49:24;;;;;;;148.88;58.88;;;-3.80;99.90;;;;;;5013063;28;20045;-73
2022/01/13 01:51:55;;;;;;;155.13;63.03;;;-3.70;99.90;;;;;;5030821;28;20033;-73
2022/01/13 01:54:21;;;;;;;175.27;60.92;;;-3.80;99.90;;;;;;5030685;28;20026;-73
2022/01/13 01:56:48;;;;;;;157.45;63.70;;;-3.70;99.90;;;;;;5030752;28;20033;-72
2022/01/13 01:59:18;;;;;;;169.85;65.25;;;-3.70;99.90;;;;;;5030758;28;20027;-72
2022/01/13 02:01:46;;;;;;;167.75;68.35;;;-3.70;99.90;;;;;;5030760;28;20467;-72
2022/01/13 02:04:12;;;;;;;168.85;63.72;;;-3.70;99.90;;;;;;5030729;28;20093;-73
2022/01/13 02:06:38;;;;;;;165.50;63.35;;;-3.70;99.90;;;;;;5012927;28;20112;-74
2022/01/13 02:09:06;;;;;;;157.38;64.55;;;-3.70;99.90;;;;;;5030599;28;20025;-73
2022/01/13 02:11:42;;;;;;;159.57;64.68;;;-3.70;99.90;;;;;;5030869;28;20420;-73
2022/01/13 02:17:07;;;;;;;161.27;58.10;;;-3.60;99.90;;;;;;5020287;28;20034;-73
2022/01/13 02:19:34;;;;;;;151.73;60.35;;;-3.60;99.90;;;;;;5012883;28;20067;-74
2022/01/13 02:22:00;;;;;;;158.25;62.67;;;-3.60;99.90;;;;;;5030645;28;20067;-73
2022/01/13 02:24:28;;;;;;;173.05;64.57;;;-3.60;99.90;;;;;;5033912;28;20049;-73
2022/01/13 02:26:54;;;;;;;180.80;70.90;;;-3.50;99.90;;;;;;5034450;28;20467;-73
2022/01/13 02:29:20;;;;;;;176.07;67.22;;;-3.50;99.90;;;;;;5016205;28;20060;-73
2022/01/13 02:31:45;;;;;;;190.38;68.38;;;-3.50;99.90;;;;;;5034032;28;20056;-74
2022/01/13 02:34:11;;;;;;;178.30;66.05;;;-3.50;99.90;;;;;;5033904;28;20060;-73
2022/01/13 02:36:38;;;;;;;171.32;69.22;;;-3.50;99.90;;;;;;5034022;28;20397;-75
2022/01/13 02:39:04;;;;;;;197.77;73.47;;;-3.50;99.90;;;;;;5033575;28;20124;-74
2022/01/13 02:41:30;;;;;;;175.48;67.10;;;-3.50;99.90;;;;;;5015909;28;20108;-73
2022/01/13 02:43:58;;;;;;;188.70;73.78;;;-3.50;99.90;;;;;;5033833;28;20433;-74
2022/01/13 02:46:54;;;;;;;186.73;67.72;;;-3.50;99.90;;;;;;5016042;28;20021;-73
2022/01/13 02:49:21;;;;;;;179.40;69.60;;;-3.40;99.90;;;;;;5033249;28;20108;-73
2022/01/13 02:51:50;;;;;;;190.65;70.10;;;-3.40;99.90;;;;;;5033577;28;20021;-73
2022/01/13 02:54:16;;;;;;;194.77;71.38;;;-3.40;99.90;;;;;;5033489;28;20029;-73
2022/01/13 02:56:43;;;;;;;186.50;68.85;;;-3.30;99.90;;;;;;5015677;28;20123;-73
2022/01/13 02:59:10;;;;;;;194.32;68.85;;;-3.30;99.90;;;;;;5033438;28;20037;-73
2022/01/13 03:01:36;;;;;;;184.18;67.63;;;-3.30;99.90;;;;;;5015701;28;20487;-73
2022/01/13 03:04:07;;;;;;;191.40;71.65;;;-3.30;99.90;;;;;;5015680;28;20084;-74
2022/01/13 03:06:36;;;;;;;183.73;71.22;;;-3.30;99.90;;;;;;5033327;28;20028;-73
2022/01/13 03:09:07;;;;;;;169.85;65.05;;;-3.20;99.90;;;;;;5033845;28;20021;-73
2022/01/13 03:11:37;;;;;;;210.73;70.53;;;-3.20;99.90;;;;;;5035167;28;20017;-73
2022/01/13 03:14:10;;;;;;;181.52;69.63;;;-3.20;99.90;;;;;;5053190;28;20027;-73
2022/01/13 03:16:38;;;;;;;191.90;73.70;;;-3.20;99.90;;;;;;5038419;28;20030;-73
2022/01/13 03:19:04;;;;;;;178.43;67.45;;;-3.20;99.90;;;;;;5015323;28;20018;-73
2022/01/13 03:21:30;;;;;;;196.45;69.45;;;-3.20;99.90;;;;;;5032731;28;20025;-73
2022/01/13 03:23:56;;;;;;;179.75;66.38;;;-3.20;99.90;;;;;;5033356;28;20391;-74
2022/01/13 03:26:22;;;;;;;203.30;66.25;;;-3.20;99.90;;;;;;5032849;28;20041;-73
2022/01/13 03:28:55;;;;;;;188.68;70.93;;;-3.20;99.90;;;;;;5038522;28;20017;-73
2022/01/13 03:31:22;;;;;;;175.55;65.32;;;-3.20;99.90;;;;;;5052844;28;20013;-73
2022/01/13 03:33:49;;;;;;;170.20;69.13;;;-3.20;99.90;;;;;;5052196;28;20159;-74
2022/01/13 03:36:15;;;;;;;192.48;70.82;;;-3.20;99.90;;;;;;5052539;28;20065;-73
2022/01/13 03:38:40;;;;;;;184.88;66.72;;;-3.20;99.90;;;;;;5052649;28;20424;-74
2022/01/13 03:41:06;;;;;;;213.57;72.00;;;-3.20;99.90;;;;;;5034854;28;20027;-73
2022/01/13 03:43:35;;;;;;;175.85;68.07;;;-3.10;99.90;;;;;;5034535;28;20021;-73
2022/01/13 03:46:00;;;;;;;183.15;66.13;;;-3.10;99.90;;;;;;5052429;28;20389;-73
2022/01/13 03:48:26;;;;;;;184.57;65.13;;;-3.10;99.90;;;;;;5034667;28;20021;-73
2022/01/13 03:50:51;;;;;;;162.50;61.83;;;-3.00;99.90;;;;;;5052366;28;20467;-73
2022/01/13 03:53:26;;;;;;;175.30;64.90;;;-3.00;99.90;;;;;;5041687;28;20025;-74
2022/01/13 03:56:26;;;;;;;171.50;63.20;;;-3.00;99.90;;;;;;5032165;28;20044;-74
2022/01/13 03:59:38;;;;;;;152.23;59.15;;;-3.00;99.90;;;;;;5032421;28;20117;-73
2022/01/13 04:02:14;;;;;;;175.25;63.25;;;-2.90;99.90;;;;;;4999553;28;20049;-73
2022/01/13 04:04:45;;;;;;;176.80;62.42;;;-2.90;99.90;;;;;;5032211;28;20026;-74
2022/01/13 04:07:31;;;;;;;175.18;65.32;;;-2.90;99.90;;;;;;5032240;28;20399;-73
2022/01/13 04:09:57;;;;;;;179.90;66.53;;;-2.90;99.90;;;;;;5031552;28;20498;-73
2022/01/13 04:12:25;;;;;;;200.50;66.32;;;-2.90;99.90;;;;;;5032171;28;20101;-73
2022/01/13 04:14:55;;;;;;;177.18;68.25;;;-2.90;99.90;;;;;;5014326;28;20086;-74
2022/01/13 04:17:23;;;;;;;169.23;61.20;;;-2.80;99.90;;;;;;5014577;28;20040;-73
2022/01/13 04:19:50;;;;;;;219.70;79.72;;;-2.80;99.90;;;;;;5031807;28;20029;-74
2022/01/13 04:22:17;;;;;;;177.52;63.22;;;-2.80;99.90;;;;;;5032245;28;20048;-74
2022/01/13 04:24:47;;;;;;;389.35;128.55;;;-2.70;99.90;;;;;;5031874;28;20364;-73
2022/01/13 04:27:24;;;;;;;432.98;141.70;;;-2.70;99.90;;;;;;5014075;28;20028;-73
2022/01/13 04:30:00;;;;;;;557.75;193.88;;;-2.60;99.90;;;;;;5031610;28;20026;-73
2022/01/13 04:32:26;;;;;;;337.05;107.20;;;-2.50;99.90;;;;;;5031814;28;20021;-73
2022/01/13 04:34:52;;;;;;;143.25;51.55;;;-2.50;99.90;;;;;;5031633;28;20034;-74
2022/01/13 04:37:17;;;;;;;246.40;78.57;;;-2.40;99.90;;;;;;5014086;28;20029;-74
2022/01/13 04:39:43;;;;;;;443.15;147.35;;;-2.40;99.90;;;;;;5013512;28;20025;-73
2022/01/13 04:42:10;;;;;;;196.82;69.43;;;-2.40;99.90;;;;;;5013652;28;20060;-73
2022/01/13 04:44:36;;;;;;;169.40;55.65;;;-2.30;99.90;;;;;;5031439;28;20032;-74
2022/01/13 04:47:07;;;;;;;121.32;44.90;;;-2.30;99.90;;;;;;5031332;28;20029;-74
2022/01/13 04:49:33;;;;;;;145.73;48.88;;;-2.30;99.90;;;;;;5046728;28;20057;-74
2022/01/13 04:51:59;;;;;;;161.52;58.38;;;-2.20;99.90;;;;;;5013392;28;20053;-74
2022/01/13 04:54:24;;;;;;;218.70;72.43;;;-2.20;99.90;;;;;;5031365;28;20034;-74
2022/01/13 04:59:15;;;;;;;135.75;45.22;;;-2.20;99.90;;;;;;5031600;28;20033;-74
2022/01/13 05:01:41;;;;;;;145.05;48.45;;;-2.20;99.90;;;;;;5031315;28;20068;-74
2022/01/13 05:04:07;;;;;;;152.30;47.40;;;-2.10;99.90;;;;;;5031346;28;20032;-74
2022/01/13 05:06:33;;;;;;;167.63;57.30;;;-2.10;99.90;;;;;;5029869;28;20078;-74
2022/01/13 05:09:00;;;;;;;169.60;60.50;;;-2.10;99.90;;;;;;5031109;28;20155;-73
2022/01/13 05:11:26;;;;;;;144.13;53.10;;;-2.10;99.90;;;;;;5029043;28;20025;-74
2022/01/13 05:13:51;;;;;;;190.80;60.85;;;-2.00;99.90;;;;;;5031062;28;20021;-74
2022/01/13 05:19:12;;;;;;;149.57;49.78;;;-2.00;99.90;;;;;;5031360;28;20034;-73
2022/01/13 05:22:05;;;;;;;118.75;42.40;;;-2.00;99.90;;;;;;5031059;28;20047;-73
2022/01/13 05:24:29;;;;;;;206.45;73.90;;;-2.00;99.90;;;;;;5030786;28;20299;-73
2022/01/13 05:26:55;;;;;;;107.32;39.25;;;-1.90;99.90;;;;;;5031042;28;20475;-74
2022/01/13 05:29:20;;;;;;;120.63;43.65;;;-1.90;99.90;;;;;;5029709;28;20523;-74
2022/01/13 05:31:48;;;;;;;124.45;44.75;;;-1.90;99.90;;;;;;5030992;28;20018;-74
2022/01/13 05:34:15;;;;;;;131.82;49.45;;;-1.90;99.90;;;;;;5029677;28;20450;-73
2022/01/13 05:36:40;;;;;;;120.10;41.08;;;-1.80;99.90;;;;;;5029653;28;20167;-74
2022/01/13 05:39:06;;;;;;;104.22;38.88;;;-1.80;99.90;;;;;;5030895;28;20105;-74
2022/01/13 05:41:33;;;;;;;113.68;39.90;;;-1.80;99.90;;;;;;5030804;28;20075;-74
2022/01/13 05:43:59;;;;;;;105.30;41.17;;;-1.80;99.90;;;;;;5031031;28;20033;-74
2022/01/13 05:46:25;;;;;;;107.72;39.50;;;-1.80;99.90;;;;;;5030803;28;20379;-73
2022/01/13 05:48:50;;;;;;;109.82;37.60;;;-1.80;99.90;;;;;;5031233;28;20426;-73
2022/01/13 05:51:16;;;;;;;104.50;40.25;;;-1.80;99.90;;;;;;5030913;28;20029;-74
2022/01/13 05:53:42;;;;;;;117.43;42.65;;;-1.70;99.90;;;;;;5030784;28;20028;-74
2022/01/13 05:56:09;;;;;;;111.68;40.60;;;-1.70;99.90;;;;;;5030737;28;20427;-74
2022/01/13 05:58:34;;;;;;;109.80;43.53;;;-1.70;99.90;;;;;;5031725;28;20017;-74
2022/01/13 06:01:00;;;;;;;116.38;47.65;;;-1.70;99.90;;;;;;5033302;28;20501;-74
2022/01/13 06:03:26;;;;;;;84.63;35.55;;;-1.70;99.90;;;;;;5033241;28;20030;-74
2022/01/13 06:05:51;;;;;;;109.82;43.80;;;-1.60;99.90;;;;;;5034466;28;20022;-74
2022/01/13 06:08:17;;;;;;;101.50;40.60;;;-1.60;99.90;;;;;;5033128;28;20033;-74
2022/01/13 06:10:45;;;;;;;95.80;37.70;;;-1.60;99.90;;;;;;5034028;28;20025;-73
2022/01/13 06:13:11;;;;;;;114.05;44.38;;;-1.60;99.90;;;;;;5034377;28;20049;-74
2022/01/13 06:15:37;;;;;;;141.48;60.35;;;-1.60;99.90;;;;;;5030563;28;20072;-73
2022/01/13 06:18:04;;;;;;;99.28;40.10;;;-1.50;99.90;;;;;;5034063;28;20511;-74
2022/01/13 06:20:30;;;;;;;94.05;37.30;;;-1.60;99.90;;;;;;5016173;28;20026;-74
2022/01/13 06:22:57;;;;;;;97.28;39.08;;;-1.50;99.90;;;;;;5034051;28;20028;-74
2022/01/13 06:25:24;;;;;;;89.30;41.13;;;-1.50;99.90;;;;;;5033950;28;20056;-73
2022/01/13 06:27:50;;;;;;;97.43;38.97;;;-1.50;99.90;;;;;;5033896;28;20018;-74
2022/01/13 06:30:16;;;;;;;91.38;36.22;;;-1.50;99.90;;;;;;5014739;28;20376;-74
2022/01/13 06:32:44;;;;;;;72.25;30.15;;;-1.50;99.90;;;;;;5033514;28;20053;-74
2022/01/13 06:35:11;;;;;;;80.32;35.17;;;-1.50;99.90;;;;;;5015817;28;20049;-74
2022/01/13 06:37:36;;;;;;;78.10;32.85;;;-1.40;99.90;;;;;;5033679;28;20060;-74
2022/01/13 06:40:04;;;;;;;79.97;30.98;;;-1.40;99.90;;;;;;5033305;28;20056;-74
2022/01/13 06:42:29;;;;;;;76.47;29.80;;;-1.40;99.90;;;;;;5015891;28;20017;-74
2022/01/13 06:44:55;;;;;;;71.65;29.52;;;-1.40;99.90;;;;;;5048442;28;20056;-74
2022/01/13 06:47:21;;;;;;;75.47;32.13;;;-1.40;99.90;;;;;;5016009;28;20072;-74
2022/01/13 06:49:46;;;;;;;77.43;31.63;;;-1.40;99.90;;;;;;5033059;28;20525;-73
2022/01/13 06:52:13;;;;;;;68.03;31.38;;;-1.30;99.90;;;;;;5033575;28;20029;-74
2022/01/13 06:54:38;;;;;;;77.75;31.70;;;-1.30;99.90;;;;;;5015540;28;20023;-73
2022/01/13 06:57:04;;;;;;;71.50;31.00;;;-1.30;99.90;;;;;;5033882;28;20025;-73
2022/01/13 06:59:30;;;;;;;80.13;35.25;;;-1.30;99.90;;;;;;5013823;28;20021;-73
2022/01/13 07:02:00;;;;;;;68.75;29.00;;;-1.30;99.90;;;;;;5032015;28;20031;-73
2022/01/13 07:04:27;;;;;;;77.78;30.50;;;-1.30;99.90;;;;;;5033080;28;20028;-73
2022/01/13 07:06:53;;;;;;;64.75;28.55;;;-1.30;99.90;;;;;;5032592;28;20096;-73
2022/01/13 07:09:18;;;;;;;71.22;29.52;;;-1.20;99.90;;;;;;5032446;28;20538;-73
2022/01/13 07:11:45;;;;;;;86.50;32.97;;;-1.20;99.90;;;;;;5029164;28;20025;-74
2022/01/13 07:14:12;;;;;;;75.05;31.70;;;-1.20;99.90;;;;;;5030468;28;20028;-74
2022/01/13 07:16:40;;;;;;;73.07;31.55;;;-1.20;99.90;;;;;;5013120;28;20753;-74
2022/01/13 07:19:08;;;;;;;72.80;28.65;;;-1.20;99.90;;;;;;5028584;28;20079;-74
2022/01/13 07:21:34;;;;;;;76.13;30.33;;;-1.10;99.90;;;;;;5029589;28;20366;-73
2022/01/13 07:24:00;;;;;;;74.30;32.53;;;-1.20;99.90;;;;;;5027065;28;20297;-73
2022/01/13 07:26:26;;;;;;;79.30;31.92;;;-1.10;99.90;;;;;;5026147;28;20018;-74
2022/01/13 07:28:51;;;;;;;82.00;38.13;;;-1.10;99.90;;;;;;5027367;28;20034;-74
2022/01/13 07:31:17;;;;;;;73.63;30.63;;;-1.10;99.90;;;;;;5027672;28;20503;-74
2022/01/13 07:33:44;;;;;;;87.53;38.17;;;-1.10;99.90;;;;;;5028308;28;20018;-75
2022/01/13 07:36:10;;;;;;;91.10;39.30;;;-1.00;99.90;;;;;;5029593;28;20038;-74
2022/01/13 07:38:35;;;;;;;67.28;29.95;;;-1.00;99.90;;;;;;5031181;28;20025;-74
2022/01/13 07:41:01;;;;;;;80.82;34.03;;;-1.00;99.90;;;;;;5032579;28;20032;-74
2022/01/13 07:43:27;;;;;;;81.25;36.60;;;-1.00;99.90;;;;;;5030131;28;20045;-74
2022/01/13 07:45:53;;;;;;;80.43;33.65;;;-1.00;99.90;;;;;;5031953;28;20064;-75
2022/01/13 07:48:20;;;;;;;83.78;35.67;;;-1.00;99.90;;;;;;5031553;28;20037;-74
2022/01/13 07:50:47;;;;;;;83.03;38.42;;;-1.00;99.90;;;;;;5046114;28;20487;-74
2022/01/13 07:53:12;;;;;;;95.43;36.30;;;-1.00;99.90;;;;;;5030129;28;20036;-74
2022/01/13 07:55:38;;;;;;;95.82;43.08;;;-0.90;99.90;;;;;;5031361;28;20037;-74
2022/01/13 07:58:04;;;;;;;124.63;58.47;;;-0.90;99.90;;;;;;5046960;28;20021;-74
2022/01/13 08:00:30;;;;;;;136.38;61.08;;;-1.00;99.90;;;;;;5031401;28;20025;-74
2022/01/13 08:02:55;;;;;;;135.98;54.20;;;-1.00;99.90;;;;;;5031563;28;20498;-75
2022/01/13 08:05:21;;;;;;;147.05;58.13;;;-0.90;99.90;;;;;;5031487;28;20021;-74
2022/01/13 08:07:47;;;;;;;147.10;63.13;;;-0.90;99.90;;;;;;5031372;28;20476;-74
2022/01/13 08:10:12;;;;;;;150.60;60.97;;;-1.00;99.90;;;;;;5046631;28;20036;-74
2022/01/13 08:12:38;;;;;;;140.43;56.72;;;-1.00;99.90;;;;;;5031378;28;20041;-74
2022/01/13 08:15:07;;;;;;;134.93;55.63;;;-1.10;99.90;;;;;;5030853;28;20037;-74
2022/01/13 08:20:17;;;;;;;142.27;61.15;;;-1.20;99.90;;;;;;5028810;28;20119;-74
2022/01/13 08:22:43;;;;;;;134.60;60.90;;;-1.30;99.90;;;;;;5045327;28;20064;-74
2022/01/13 08:25:09;;;;;;;155.77;61.35;;;-1.30;99.90;;;;;;5030176;28;20063;-74
2022/01/13 08:27:35;;;;;;;151.10;62.13;;;-1.30;99.90;;;;;;5030014;28;20045;-73
2022/01/13 08:30:01;;;;;;;146.73;58.55;;;-1.30;99.90;;;;;;5045551;28;20031;-73
2022/01/13 08:32:26;;;;;;;152.65;62.30;;;-1.30;99.90;;;;;;5046347;28;20075;-74
2022/01/13 08:34:52;;;;;;;153.07;65.10;;;-1.40;99.90;;;;;;5030936;28;20034;-74
2022/01/13 08:37:18;;;;;;;160.07;59.33;;;-1.40;99.90;;;;;;5031063;28;20063;-74
2022/01/13 08:39:45;;;;;;;140.13;57.78;;;-1.30;99.90;;;;;;5030840;28;20446;-74
2022/01/13 08:42:12;;;;;;;137.57;58.08;;;-1.40;99.90;;;;;;5046154;28;20017;-74
2022/01/13 08:44:38;;;;;;;141.52;59.42;;;-1.40;99.90;;;;;;5030778;28;20040;-74
2022/01/13 08:47:04;;;;;;;141.38;59.40;;;-1.40;99.90;;;;;;5030918;28;20022;-73
2022/01/13 08:49:30;;;;;;;138.14;58.90;;;-1.40;99.90;;;;;;4993727;28;1089761;-74
2022/01/13 08:51:56;;;;;;;125.32;54.10;;;-1.40;99.90;;;;;;5013824;28;20021;-75
2022/01/13 08:54:22;;;;;;;122.28;53.33;;;-1.50;99.90;;;;;;5031434;28;20030;-74
2022/01/13 08:56:48;;;;;;;136.82;56.40;;;-1.50;99.90;;;;;;5031718;28;20029;-73
2022/01/13 08:59:14;;;;;;;128.43;54.55;;;-1.40;99.90;;;;;;5034453;28;20389;-74
2022/01/13 09:01:39;;;;;;;123.53;54.20;;;-1.40;99.90;;;;;;5051306;28;20074;-74
2022/01/13 09:04:06;;;;;;;298.08;126.18;;;-1.30;99.90;;;;;;5031545;28;20063;-74
2022/01/13 09:06:31;;;;;;;124.65;57.08;;;-1.30;99.90;;;;;;5031655;28;20396;-74
2022/01/13 09:08:57;;;;;;;133.45;60.20;;;-1.30;99.90;;;;;;5013669;28;20075;-74
2022/01/13 09:11:22;;;;;;;116.10;49.33;;;-1.30;99.90;;;;;;5013624;28;20029;-74
2022/01/13 09:13:55;;;;;;;121.30;53.53;;;-1.30;99.90;;;;;;5031318;28;20056;-75
2022/01/13 09:16:23;;;;;;;109.07;49.25;;;-1.20;99.90;;;;;;5032550;28;20033;-74
2022/01/13 09:21:22;;;;;;;127.80;55.05;;;-1.20;99.90;;;;;;5051463;28;20033;-74
2022/01/13 09:23:48;;;;;;;102.40;45.17;;;-1.20;99.90;;;;;;5033161;28;20467;-74
2022/01/13 09:26:13;;;;;;;125.30;55.40;;;-1.20;99.90;;;;;;5033160;28;20027;-74
2022/01/13 09:28:39;;;;;;;127.00;60.88;;;-1.20;99.90;;;;;;5033049;28;20017;-74
2022/01/13 09:31:05;;;;;;;152.43;74.85;;;-1.20;99.90;;;;;;5050916;28;20029;-74
2022/01/13 09:33:31;;;;;;;136.93;60.92;;;-1.20;99.90;;;;;;5053405;28;20017;-74
2022/01/13 09:35:58;;;;;;;138.35;60.50;;;-1.10;99.90;;;;;;5054959;28;20114;-74
2022/01/13 09:38:23;;;;;;;174.90;81.22;;;-1.10;99.90;;;;;;5037029;28;20108;-75
2022/01/13 09:40:52;;;;;;;162.45;71.28;;;-1.10;99.90;;;;;;5039969;28;20120;-74
2022/01/13 09:43:24;;;;;;;119.63;50.88;;;-1.10;99.90;;;;;;5035075;28;20108;-74
2022/01/13 09:45:51;;;;;;;108.30;51.03;;;-1.10;99.90;;;;;;5034975;28;20021;-74
2022/01/13 09:48:17;;;;;;;120.95;55.13;;;-1.10;99.90;;;;;;5017140;28;20033;-74
2022/01/13 09:50:46;;;;;;;108.00;46.67;;;-1.10;99.90;;;;;;5017074;28;20081;-74
2022/01/13 09:53:12;;;;;;;94.20;44.90;;;-1.10;99.90;;;;;;5034856;28;20069;-74
2022/01/13 09:55:38;;;;;;;121.35;50.55;;;-1.10;99.90;;;;;;5016955;28;20040;-74
2022/01/13 09:58:10;;;;;;;102.78;41.92;;;-1.10;99.90;;;;;;5034777;28;20040;-74
2022/01/13 10:00:39;;;;;;;97.90;45.05;;;-1.10;99.90;;;;;;5016763;28;20056;-74
2022/01/13 10:03:15;;;;;;;100.68;42.83;;;-1.10;99.90;;;;;;5034716;28;20490;-74
2022/01/13 10:05:55;;;;;;;94.68;41.53;;;-1.10;99.90;;;;;;5034390;28;20017;-74
2022/01/13 10:08:22;;;;;;;105.47;46.42;;;-1.10;99.90;;;;;;5017004;28;20032;-74
2022/01/13 10:10:48;;;;;;;100.90;43.10;;;-1.00;99.90;;;;;;5034271;28;20100;-74
2022/01/13 10:13:23;;;;;;;106.63;47.15;;;-1.10;99.90;;;;;;5034509;28;20063;-74
2022/01/13 10:18:46;;;;;;;101.82;44.75;;;-1.10;99.90;;;;;;5034651;28;20079;-74
2022/01/13 10:21:18;;;;;;;95.18;42.75;;;-1.10;99.90;;;;;;5015855;28;20037;-74
2022/01/13 10:24:11;;;;;;;101.90;44.90;;;-1.00;99.90;;;;;;5049494;28;20033;-74
2022/01/13 10:26:39;;;;;;;93.15;43.15;;;-1.00;99.90;;;;;;5016268;28;20029;-74
2022/01/13 10:29:07;;;;;;;99.70;45.33;;;-1.00;99.90;;;;;;5016384;28;20021;-74
2022/01/13 10:31:46;;;;;;;98.40;45.10;;;-1.00;99.90;;;;;;5049242;28;20033;-74
2022/01/13 10:34:17;;;;;;;100.05;46.33;;;-1.00;99.90;;;;;;5049313;28;20509;-74
2022/01/13 10:37:02;;;;;;;115.32;48.53;;;-1.00;99.90;;;;;;5049151;28;20034;-74
2022/01/13 10:39:49;;;;;;;109.78;46.03;;;-1.00;99.90;;;;;;5033303;28;20052;-74
2022/01/13 10:45:06;;;;;;;114.72;46.50;;;-1.00;99.90;;;;;;5032250;28;20036;-74
2022/01/13 10:47:33;;;;;;;99.70;48.17;;;-1.10;99.90;;;;;;5032244;28;20030;-74
2022/01/13 10:50:06;;;;;;;110.35;45.33;;;-1.00;99.90;;;;;;5031683;28;20108;-74
2022/01/13 10:52:32;;;;;;;101.97;46.67;;;-1.00;99.90;;;;;;5016721;28;20025;-74
2022/01/13 10:55:14;;;;;;;110.88;45.75;;;-1.00;99.90;;;;;;5031424;28;20045;-74
2022/01/13 10:57:42;;;;;;;105.85;47.15;;;-0.90;99.90;;;;;;5013734;28;20018;-74
2022/01/13 11:00:17;;;;;;;115.35;51.50;;;-0.90;99.90;;;;;;5032554;28;20021;-74
2022/01/13 11:03:12;;;;;;;134.40;67.20;;;-0.90;99.90;;;;;;5033612;28;20029;-74
2022/01/13 11:05:56;;;;;;;107.70;49.08;;;-0.90;99.90;;;;;;5020389;28;20391;-74
2022/01/13 11:08:40;;;;;;;106.75;47.58;;;-0.90;99.90;;;;;;5033546;28;20500;-74
2022/01/13 11:11:06;;;;;;;125.80;53.55;;;-0.90;99.90;;;;;;5015922;28;20083;-74
2022/01/13 11:13:39;;;;;;;108.93;51.00;;;-0.90;99.90;;;;;;5033397;28;20022;-75
2022/01/13 11:16:04;;;;;;;;;;;-0.80;99.90;;;;;;5033701;28;20041;-74
2022/01/13 11:18:31;;;;;;;127.72;53.75;;;-0.80;99.90;;;;;;5033295;28;20290;-74
2022/01/13 11:20:58;;;;;;;119.80;49.78;;;-0.90;99.90;;;;;;5033218;28;20045;-74
2022/01/13 11:23:25;;;;;;;109.18;48.03;;;-0.90;99.90;;;;;;5015518;28;20053;-74
2022/01/13 11:25:57;;;;;;;100.38;44.28;;;-0.80;99.90;;;;;;5033720;28;20419;-74
2022/01/13 11:28:23;;;;;;;106.40;49.83;;;-0.80;99.90;;;;;;5033143;28;20014;-74
2022/01/13 11:30:50;;;;;;;104.90;48.38;;;-0.80;99.90;;;;;;5032965;28;20017;-74
2022/01/13 11:33:20;;;;;;;132.07;58.72;;;-0.70;99.90;;;;;;5033102;28;20030;-74
2022/01/13 11:35:52;;;;;;;139.68;60.85;;;-0.70;99.90;;;;;;5032888;28;20113;-74
2022/01/13 11:38:19;;;;;;;158.88;62.80;;;-0.70;99.90;;;;;;5033312;28;20045;-74
2022/01/13 11:40:50;;;;;;;135.27;56.95;;;-0.70;99.90;;;;;;5032838;28;20487;-74
2022/01/13 11:43:23;;;;;;;119.70;51.40;;;-0.70;99.90;;;;;;5015206;28;20031;-74
2022/01/13 11:45:48;;;;;;;97.90;44.15;;;-0.60;99.90;;;;;;5032623;28;20479;-74
2022/01/13 11:48:26;;;;;;;115.25;51.90;;;-0.60;99.90;;;;;;5048106;28;20113;-74
2022/01/13 11:51:14;;;;;;;258.92;96.28;;;-0.60;99.90;;;;;;5034236;28;20025;-74
2022/01/13 11:53:54;;;;;;;105.88;46.53;;;-0.60;99.90;;;;;;5036587;28;20033;-74
2022/01/13 11:56:19;;;;;;;96.75;43.78;;;-0.60;99.90;;;;;;5033064;28;20033;-74
2022/01/13 11:58:47;;;;;;;121.20;49.75;;;-0.60;99.90;;;;;;5052663;28;20025;-74
2022/01/13 12:01:25;;;;;;;160.13;62.40;;;-0.60;99.90;;;;;;5020674;28;20104;-74
2022/01/13 12:04:03;;;;;;;162.85;69.30;;;-0.50;99.90;;;;;;5019693;28;20048;-74
2022/01/13 12:06:49;;;;;;;113.03;50.63;;;-0.50;99.90;;;;;;5018633;28;20029;-74
2022/01/13 12:09:20;;;;;;;108.07;49.33;;;-0.50;99.90;;;;;;5020530;28;20115;-74
2022/01/13 12:11:53;;;;;;;112.20;47.95;;;-0.50;99.90;;;;;;5038520;28;20017;-74
2022/01/13 12:14:25;;;;;;;119.35;48.38;;;-0.50;99.90;;;;;;5020778;28;20025;-74
2022/01/13 12:17:12;;;;;;;124.22;50.25;;;-0.50;99.90;;;;;;5021694;28;20064;-74
2022/01/13 12:19:48;;;;;;;116.13;52.03;;;-0.40;99.90;;;;;;5037952;28;20021;-74
2022/01/13 12:22:36;;;;;;;117.10;53.28;;;-0.40;99.90;;;;;;5037125;28;20018;-74
2022/01/13 12:25:04;;;;;;;135.38;56.45;;;-0.40;99.90;;;;;;5037064;28;20390;-74
2022/01/13 12:27:39;;;;;;;125.22;52.60;;;-0.40;99.90;;;;;;5020003;28;20076;-74
2022/01/13 12:30:10;;;;;;;114.20;52.60;;;-0.40;99.90;;;;;;5037821;28;20029;-74
2022/01/13 12:32:49;;;;;;;118.28;50.63;;;-0.40;99.90;;;;;;5036567;28;20040;-74
2022/01/13 12:35:30;;;;;;;112.53;49.47;;;-0.40;99.90;;;;;;5020366;28;20037;-74
2022/01/13 12:38:00;;;;;;;112.30;51.75;;;-0.40;99.90;;;;;;5036270;28;20022;-74
2022/01/13 12:40:26;;;;;;;118.93;52.30;;;-0.40;99.90;;;;;;5036923;28;20045;-74
2022/01/13 12:42:53;;;;;;;127.80;56.40;;;-0.30;99.90;;;;;;5053372;28;20479;-75
2022/01/13 12:45:32;;;;;;;118.78;55.53;;;-0.30;99.90;;;;;;5019559;28;20156;-74
2022/01/13 12:48:06;;;;;;;122.97;50.75;;;-0.30;99.90;;;;;;5037526;28;20029;-74
2022/01/13 12:50:41;;;;;;;109.50;48.42;;;-0.30;99.90;;;;;;5037104;28;20021;-75
2022/01/13 12:53:23;;;;;;;112.90;49.40;;;-0.30;99.90;;;;;;5035886;28;20549;-74
2022/01/13 12:56:00;;;;;;;119.55;51.90;;;-0.30;99.90;;;;;;5020711;28;20028;-74
2022/01/13 12:58:29;;;;;;;130.75;52.38;;;-0.30;99.90;;;;;;5037795;28;20104;-74
2022/01/13 13:00:56;;;;;;;126.22;51.45;;;-0.30;99.90;;;;;;5036778;28;20379;-74
2022/01/13 13:03:22;;;;;;;136.18;55.53;;;-0.30;99.90;;;;;;5019154;28;20049;-74